Time;durP1;ratioP1;P1;durP2;ratioP2;P2;SDS_P1;SDS_P2;PMS_P1;PMS_P2;Temp;Humidity;BMP_temperature;BMP_pressure;BME280_temperature;BME280_humidity;BME280_pressure;Samples;Min_cycle;Max_cycle;Signal;HPM_P1;HPM_P2
2024/01/08 00:01:14;;;;;;;4.60;4.20;;;;;;;-3.36;100.00;102792.47;5026503;28;20117;-62
2024/01/08 00:03:39;;;;;;;;;;;;;;;-3.39;100.00;102788.81;5026694;28;20032;-62
2024/01/08 00:06:05;;;;;;;6.20;4.73;;;;;;;-3.36;100.00;102788.28;5026301;28;19912;-62
2024/01/08 00:08:30;;;;;;;6.63;5.30;;;;;;;-3.34;100.00;102793.53;5026717;28;20461;-62
2024/01/08 00:10:56;;;;;;;6.40;4.73;;;;;;;-3.39;100.00;102795.53;5026430;28;20029;-62
2024/01/08 00:13:21;;;;;;;8.43;6.07;;;;;;;-3.36;100.00;102787.38;5026327;28;20481;-62
2024/01/08 00:15:46;;;;;;;8.03;5.97;;;;;;;-3.35;100.00;102791.72;5025971;28;20160;-61
2024/01/08 00:18:12;;;;;;;7.73;6.57;;;;;;;-3.36;100.00;102800.94;5026148;28;20022;-62
2024/01/08 00:20:38;;;;;;;7.97;6.70;;;;;;;-3.39;100.00;102809.13;5026568;28;20040;-62
2024/01/08 00:23:03;;;;;;;9.53;7.63;;;;;;;-3.41;100.00;102790.25;5026549;28;20032;-62
2024/01/08 00:25:28;;;;;;;9.33;7.10;;;;;;;-3.44;100.00;102791.53;5025865;28;20386;-61
2024/01/08 00:27:55;;;;;;;15.27;9.20;;;;;;;-3.44;100.00;102792.44;5026043;28;20029;-62
2024/01/08 00:30:20;;;;;;;10.00;8.33;;;;;;;-3.42;100.00;102796.03;5025899;28;20021;-61
2024/01/08 00:32:46;;;;;;;12.33;8.87;;;;;;;-3.46;100.00;102792.97;5028388;28;20444;-62
2024/01/08 00:35:11;;;;;;;13.90;10.23;;;;;;;-3.44;100.00;102789.00;5029746;28;20056;-62
2024/01/08 00:37:38;;;;;;;11.50;8.20;;;;;;;-3.44;100.00;102792.44;5030220;28;20037;-62
2024/01/08 00:40:09;;;;;;;11.50;8.83;;;;;;;-3.44;100.00;102791.53;5029841;28;20031;-62
2024/01/08 00:42:35;;;;;;;12.25;9.52;;;;;;;-3.44;100.00;102797.50;5029432;28;20021;-62
2024/01/08 00:45:02;;;;;;;13.30;10.30;;;;;;;-3.44;100.00;102797.50;5029686;28;20473;-62
2024/01/08 00:47:27;;;;;;;15.50;10.43;;;;;;;-3.42;100.00;102796.03;5029406;28;20444;-62
2024/01/08 00:49:52;;;;;;;16.27;11.63;;;;;;;-3.41;100.00;102802.94;5029448;28;20050;-62
2024/01/08 00:52:18;;;;;;;19.70;13.83;;;;;;;-3.42;100.00;102790.97;5029388;28;20103;-62
2024/01/08 00:54:44;;;;;;;20.83;13.83;;;;;;;-3.44;100.00;102792.44;5029923;28;20056;-62
2024/01/08 00:57:09;;;;;;;20.43;14.20;;;;;;;-3.43;100.00;102794.25;5029112;28;20030;-62
2024/01/08 00:59:35;;;;;;;22.10;15.20;;;;;;;-3.41;100.00;102794.41;5028953;28;20032;-62
2024/01/08 01:02:00;;;;;;;17.10;13.70;;;;;;;-3.43;100.00;102793.31;5029059;28;20470;-62
2024/01/08 01:04:26;;;;;;;19.53;15.03;;;;;;;-3.40;100.00;102793.72;5029356;28;20044;-62
2024/01/08 01:06:51;;;;;;;21.53;15.33;;;;;;;-3.43;100.00;102799.31;5029092;28;20037;-62
2024/01/08 01:09:17;;;;;;;17.87;14.30;;;;;;;-3.46;100.00;102804.03;5029486;28;20359;-62
2024/01/08 01:11:42;;;;;;;21.17;13.90;;;;;;;-3.45;100.00;102795.69;5028596;28;20021;-62
2024/01/08 01:14:07;;;;;;;18.87;13.47;;;;;;;-3.46;100.00;102809.09;5029361;28;20029;-62
2024/01/08 01:16:34;;;;;;;18.60;14.17;;;;;;;-3.45;100.00;102804.94;5026360;28;20105;-62
2024/01/08 01:18:59;;;;;;;16.67;12.57;;;;;;;-3.46;100.00;102790.44;5028358;28;20037;-62
2024/01/08 01:21:24;;;;;;;15.70;11.70;;;;;;;-3.44;100.00;102797.50;5023266;28;20036;-62
2024/01/08 01:23:50;;;;;;;14.13;11.80;;;;;;;-3.44;100.00;102791.53;5028730;28;20029;-62
2024/01/08 01:26:16;;;;;;;12.57;9.73;;;;;;;-3.43;100.00;102803.47;5028111;28;20115;-62
2024/01/08 01:28:41;;;;;;;13.43;11.57;;;;;;;-3.42;100.00;102801.13;5027690;28;20049;-62
2024/01/08 01:31:09;;;;;;;12.77;9.70;;;;;;;-3.41;100.00;102800.41;5027691;28;20037;-62
2024/01/08 01:33:35;;;;;;;12.60;9.37;;;;;;;-3.43;100.00;102798.41;5029004;28;20484;-62
2024/01/08 01:36:00;;;;;;;11.80;9.17;;;;;;;-3.43;100.00;102798.41;5028366;28;20042;-62
2024/01/08 01:38:25;;;;;;;8.63;7.80;;;;;;;-3.45;100.00;102795.69;5028460;28;20076;-62
2024/01/08 01:40:50;;;;;;;11.30;8.93;;;;;;;-3.43;100.00;102798.41;5027896;28;20029;-62
2024/01/08 01:43:31;;;;;;;10.23;8.33;;;;;;;-3.45;100.00;102798.22;5027096;28;20029;-62
2024/01/08 01:46:04;;;;;;;8.90;8.00;;;;;;;-3.45;100.00;102795.69;5027402;28;20434;-62
2024/01/08 01:48:29;;;;;;;9.63;8.07;;;;;;;-3.46;100.00;102803.09;5028034;28;20061;-62
2024/01/08 01:50:55;;;;;;;8.20;7.40;;;;;;;-3.47;100.00;102802.19;5027772;28;20033;-62
2024/01/08 01:53:21;;;;;;;8.43;7.53;;;;;;;-3.48;100.00;102799.47;5028250;28;20026;-62
2024/01/08 01:55:46;;;;;;;8.77;7.70;;;;;;;-3.51;100.00;102810.16;5027471;28;20033;-62
2024/01/08 01:58:14;;;;;;;9.20;8.27;;;;;;;-3.52;100.00;102808.34;5028292;28;20053;-62
2024/01/08 02:00:39;;;;;;;9.03;7.67;;;;;;;-3.52;100.00;102811.78;5028107;28;20447;-62
2024/01/08 02:03:06;;;;;;;8.60;7.77;;;;;;;-3.50;100.00;102806.91;5028149;28;20101;-62
2024/01/08 02:05:32;;;;;;;9.13;8.07;;;;;;;-3.49;100.00;102811.28;5028004;28;20049;-62
2024/01/08 02:07:58;;;;;;;10.07;7.57;;;;;;;-3.50;100.00;102812.88;5027903;28;20462;-62
2024/01/08 02:10:24;;;;;;;8.90;7.63;;;;;;;-3.46;100.00;102815.78;5027221;28;20109;-62
2024/01/08 02:12:50;;;;;;;8.17;7.33;;;;;;;-3.48;100.00;102810.53;5028157;28;20376;-62
2024/01/08 02:15:15;;;;;;;7.57;6.77;;;;;;;-3.45;100.00;102810.91;5027799;28;20017;-62
2024/01/08 02:17:41;;;;;;;7.13;6.33;;;;;;;-3.44;100.00;102810.19;5026629;28;20100;-62
2024/01/08 02:20:07;;;;;;;6.97;5.90;;;;;;;-3.46;100.00;102814.16;5027241;28;20025;-62
2024/01/08 02:22:39;;;;;;;6.67;6.07;;;;;;;-3.48;100.00;102809.63;5027614;28;20104;-62
2024/01/08 02:25:04;;;;;;;7.53;6.73;;;;;;;-3.48;100.00;102822.28;5027415;28;20082;-62
2024/01/08 02:27:29;;;;;;;5.83;5.33;;;;;;;-3.48;100.00;102813.06;5027856;28;20060;-62
2024/01/08 02:29:55;;;;;;;6.00;5.40;;;;;;;-3.50;100.00;102811.97;5027297;28;20562;-62
2024/01/08 02:32:20;;;;;;;5.77;5.27;;;;;;;-3.54;100.00;102820.84;5027662;28;20411;-62
2024/01/08 02:34:45;;;;;;;6.30;5.03;;;;;;;-3.58;100.00;102818.63;5026669;28;20101;-62
2024/01/08 02:37:12;;;;;;;5.57;4.83;;;;;;;-3.66;100.00;102822.78;5027401;28;20388;-62
2024/01/08 02:39:37;;;;;;;7.50;5.33;;;;;;;-3.66;100.00;102819.34;5027519;28;20029;-62
2024/01/08 02:42:03;;;;;;;7.57;4.73;;;;;;;-3.68;100.00;102828.38;5027360;28;20033;-62
2024/01/08 02:44:28;;;;;;;4.97;4.57;;;;;;;-3.71;100.00;102823.88;5027305;28;20079;-62
2024/01/08 02:46:53;;;;;;;5.27;4.17;;;;;;;-3.72;100.00;102828.75;5027311;28;20107;-62
2024/01/08 02:49:18;;;;;;;4.77;4.20;;;;;;;-3.76;100.00;102832.53;5027001;28;20060;-62
2024/01/08 02:51:44;;;;;;;6.37;4.20;;;;;;;-3.80;100.00;102828.72;5023642;28;20473;-62
2024/01/08 02:54:09;;;;;;;5.20;4.33;;;;;;;-3.81;100.00;102836.13;5025233;28;20034;-62
2024/01/08 02:56:34;;;;;;;6.27;4.47;;;;;;;-3.86;100.00;102826.34;5026979;28;20025;-62
2024/01/08 02:59:05;;;;;;;5.57;4.60;;;;;;;-3.90;100.00;102831.75;5027049;28;20444;-62
2024/01/08 03:01:31;;;;;;;;;;;;;;;-3.92;100.00;102833.16;5027479;28;20462;-62
2024/01/08 03:03:56;;;;;;;6.03;4.53;;;;;;;-3.95;100.00;102835.34;5026856;28;19916;-62
2024/01/08 03:06:21;;;;;;;5.23;4.70;;;;;;;-3.96;100.00;102836.06;5026816;28;20033;-62
2024/01/08 03:08:47;;;;;;;5.67;5.03;;;;;;;-3.98;100.00;102834.97;5026949;28;20017;-62
2024/01/08 03:11:12;;;;;;;4.53;4.13;;;;;;;-3.98;100.00;102838.41;5026830;28;20124;-61
2024/01/08 03:13:37;;;;;;;6.37;4.57;;;;;;;-4.01;100.00;102825.34;5026607;28;20101;-62
2024/01/08 03:16:03;;;;;;;5.63;4.53;;;;;;;-4.03;100.00;102833.50;5027049;28;20151;-62
2024/01/08 03:18:28;;;;;;;6.47;5.30;;;;;;;-4.04;100.00;102829.13;5026514;28;20037;-62
2024/01/08 03:20:54;;;;;;;6.10;4.97;;;;;;;-4.05;100.00;102827.31;5026627;28;20030;-62
2024/01/08 03:23:19;;;;;;;5.43;4.80;;;;;;;-4.11;100.00;102833.47;5026389;28;20029;-62
2024/01/08 03:25:44;;;;;;;5.57;5.03;;;;;;;-4.11;100.00;102833.47;5026673;28;20026;-62
2024/01/08 03:28:09;;;;;;;6.90;4.80;;;;;;;-4.10;100.00;102835.25;5025858;28;20484;-62
2024/01/08 03:30:35;;;;;;;6.20;4.83;;;;;;;-4.07;100.00;102838.88;5026112;28;20083;-62
2024/01/08 03:33:00;;;;;;;5.73;4.73;;;;;;;-4.07;100.00;102838.88;5026192;28;20336;-62
2024/01/08 03:35:25;;;;;;;6.33;5.10;;;;;;;-4.06;100.00;102838.16;5026606;28;20095;-62
2024/01/08 03:37:50;;;;;;;5.90;4.70;;;;;;;-4.06;100.00;102838.16;5026142;28;20101;-62
2024/01/08 03:40:16;;;;;;;6.37;5.00;;;;;;;-4.06;100.00;102843.22;5026182;28;20523;-62
2024/01/08 03:42:41;;;;;;;6.83;4.67;;;;;;;-4.05;100.00;102843.44;5026563;28;20029;-62
2024/01/08 03:45:08;;;;;;;6.17;4.90;;;;;;;-4.03;100.00;102843.63;5026455;28;20045;-62
2024/01/08 03:47:34;;;;;;;6.23;5.07;;;;;;;-4.02;100.00;102848.88;5026487;28;20026;-62
2024/01/08 03:50:00;;;;;;;6.43;5.20;;;;;;;-4.00;100.00;102841.47;5026381;28;20115;-62
2024/01/08 03:52:25;;;;;;;5.57;4.40;;;;;;;-3.98;100.00;102840.03;5026529;28;20025;-62
2024/01/08 03:54:50;;;;;;;5.77;4.77;;;;;;;-3.97;100.00;102841.84;5025911;28;20029;-62
2024/01/08 03:57:15;;;;;;;6.40;4.90;;;;;;;-3.96;100.00;102837.69;5026083;28;20029;-62
2024/01/08 03:59:42;;;;;;;6.40;5.10;;;;;;;-3.95;100.00;102845.47;5026809;28;20461;-62
2024/01/08 04:02:08;;;;;;;6.47;5.37;;;;;;;-3.93;100.00;102844.03;5026367;28;20037;-62
2024/01/08 04:04:33;;;;;;;6.07;5.13;;;;;;;-3.92;100.00;102835.72;5026144;28;20025;-62
2024/01/08 04:06:58;;;;;;;5.83;4.90;;;;;;;-3.91;100.00;102837.53;5025575;28;20353;-62
2024/01/08 04:09:23;;;;;;;6.43;5.17;;;;;;;-3.93;100.00;102844.03;5030440;28;20444;-62
2024/01/08 04:11:49;;;;;;;7.73;5.43;;;;;;;-3.94;100.00;102844.75;5029936;28;20053;-62
2024/01/08 04:14:14;;;;;;;7.27;5.10;;;;;;;-3.92;100.00;102840.78;5030166;28;20038;-62
2024/01/08 04:16:39;;;;;;;5.83;4.83;;;;;;;-3.92;100.00;102838.25;5029880;28;20021;-62
2024/01/08 04:19:05;;;;;;;6.00;4.60;;;;;;;-3.92;100.00;102845.84;5029839;28;20374;-62
2024/01/08 04:21:30;;;;;;;7.20;5.20;;;;;;;-3.92;100.00;102835.72;5030121;28;20056;-62
2024/01/08 04:23:56;;;;;;;5.63;5.03;;;;;;;-3.91;100.00;102840.06;5029849;28;20062;-62
2024/01/08 04:26:23;;;;;;;6.30;5.13;;;;;;;-3.90;100.00;102834.28;5030398;28;20358;-62
2024/01/08 04:28:49;;;;;;;8.37;5.23;;;;;;;-3.88;100.00;102842.06;5029818;28;20035;-62
2024/01/08 04:31:18;;;;;;;6.90;5.27;;;;;;;-3.87;100.00;102839.72;5029217;28;20029;-62
2024/01/08 04:33:44;;;;;;;5.67;4.70;;;;;;;-3.88;100.00;102837.91;5029833;28;20462;-62
2024/01/08 04:36:09;;;;;;;7.03;4.77;;;;;;;-3.86;100.00;102841.53;5029549;28;20037;-62
2024/01/08 04:38:34;;;;;;;5.93;4.23;;;;;;;-3.84;100.00;102844.25;5029557;28;20032;-62
2024/01/08 04:41:00;;;;;;;5.77;4.93;;;;;;;-3.80;100.00;102845.53;5029759;28;20565;-62
2024/01/08 04:43:25;;;;;;;6.47;4.67;;;;;;;-3.80;100.00;102843.94;5029551;28;20017;-62
2024/01/08 04:45:50;;;;;;;7.83;4.60;;;;;;;-3.80;100.00;102840.47;5029000;28;20029;-62
2024/01/08 04:48:15;;;;;;;6.07;4.77;;;;;;;-3.80;100.00;102840.47;5029556;28;20052;-62
2024/01/08 04:50:41;;;;;;;7.07;4.90;;;;;;;-3.80;100.00;102840.47;5029310;28;20021;-62
2024/01/08 04:53:06;;;;;;;6.93;4.60;;;;;;;-3.78;100.00;102839.03;5029203;28;20067;-62
2024/01/08 04:55:31;;;;;;;5.67;4.27;;;;;;;-3.81;100.00;102839.56;5029002;28;20021;-62
2024/01/08 04:57:57;;;;;;;5.60;4.50;;;;;;;-3.81;100.00;102844.63;5029116;28;20029;-62
2024/01/08 05:00:22;;;;;;;4.70;4.03;;;;;;;-3.81;100.00;102837.03;5028880;28;20116;-62
2024/01/08 05:02:47;;;;;;;8.43;4.70;;;;;;;-3.78;100.00;102839.03;5029453;28;20060;-62
2024/01/08 05:05:13;;;;;;;5.43;4.57;;;;;;;-3.75;100.00;102844.47;5028659;28;20400;-62
2024/01/08 05:07:38;;;;;;;7.43;5.07;;;;;;;-3.73;100.00;102837.97;5029247;28;20033;-62
2024/01/08 05:10:04;;;;;;;5.80;5.20;;;;;;;-3.74;100.00;102836.13;5028904;28;20606;-61
2024/01/08 05:12:29;;;;;;;5.77;4.40;;;;;;;-3.68;100.00;102841.97;5029380;28;20044;-62
2024/01/08 05:14:55;;;;;;;6.77;4.90;;;;;;;-3.70;100.00;102837.41;5028658;28;20056;-62
2024/01/08 05:17:20;;;;;;;5.90;4.97;;;;;;;-3.71;100.00;102841.63;5028552;28;20044;-62
2024/01/08 05:19:45;;;;;;;5.80;4.93;;;;;;;-3.69;100.00;102839.25;5028493;28;20030;-62
2024/01/08 05:22:10;;;;;;;6.10;5.00;;;;;;;-3.70;100.00;102840.88;5028875;28;20510;-62
2024/01/08 05:24:36;;;;;;;7.03;5.50;;;;;;;-3.70;100.00;102833.28;5028660;28;20026;-62
2024/01/08 05:27:01;;;;;;;7.17;5.17;;;;;;;-3.69;100.00;102840.19;5028395;28;20025;-62
2024/01/08 05:29:26;;;;;;;5.23;4.63;;;;;;;-3.69;100.00;102839.25;5028569;28;20082;-62
2024/01/08 05:31:52;;;;;;;5.50;4.90;;;;;;;-3.70;100.00;102832.34;5028909;28;20029;-62
2024/01/08 05:34:17;;;;;;;8.47;5.90;;;;;;;-3.69;100.00;102831.66;5028248;28;20030;-62
2024/01/08 05:36:42;;;;;;;7.80;5.53;;;;;;;-3.68;100.00;102836.00;5028163;28;20109;-62
2024/01/08 05:39:08;;;;;;;7.30;6.03;;;;;;;-3.68;100.00;102836.91;5027848;28;20382;-62
2024/01/08 05:41:34;;;;;;;8.43;5.63;;;;;;;-3.65;100.00;102833.84;5028718;28;20022;-62
2024/01/08 05:43:59;;;;;;;7.53;6.30;;;;;;;-3.65;100.00;102831.31;5027896;28;20021;-62
2024/01/08 05:46:24;;;;;;;7.73;6.23;;;;;;;-3.65;100.00;102826.25;5028773;28;20069;-62
2024/01/08 05:48:50;;;;;;;9.00;6.40;;;;;;;-3.66;100.00;102835.47;5027610;28;20088;-62
2024/01/08 05:51:16;;;;;;;7.90;5.57;;;;;;;-3.64;100.00;102828.97;5028681;28;20550;-62
2024/01/08 05:53:41;;;;;;;6.27;5.13;;;;;;;-3.65;100.00;102829.66;5027839;28;20036;-61
2024/01/08 05:56:07;;;;;;;8.50;6.17;;;;;;;-3.60;100.00;102835.31;5028474;28;20047;-61
2024/01/08 05:58:32;;;;;;;8.90;6.17;;;;;;;-3.60;100.00;102834.41;5028095;28;20033;-62
2024/01/08 06:00:59;;;;;;;8.63;6.07;;;;;;;-3.61;100.00;102830.94;5014525;28;20387;-62
2024/01/08 06:03:24;;;;;;;7.60;5.80;;;;;;;-3.61;100.00;102833.47;5027723;28;20328;-62
2024/01/08 06:05:50;;;;;;;9.27;6.50;;;;;;;-3.64;100.00;102831.50;5028086;28;20033;-62
2024/01/08 06:08:15;;;;;;;8.60;6.30;;;;;;;-3.64;100.00;102823.91;5027594;28;20109;-62
2024/01/08 06:10:41;;;;;;;8.07;6.03;;;;;;;-3.62;100.00;102830.03;5027284;28;20384;-62
2024/01/08 06:13:10;;;;;;;7.30;6.50;;;;;;;-3.62;100.00;102836.75;5026700;28;20470;-62
2024/01/08 06:15:35;;;;;;;8.10;6.43;;;;;;;-3.62;100.00;102826.63;5027704;28;20028;-62
2024/01/08 06:18:01;;;;;;;6.90;5.90;;;;;;;-3.59;100.00;102829.50;5028005;28;20029;-62
2024/01/08 06:20:26;;;;;;;8.73;6.17;;;;;;;-3.59;100.00;102831.13;5027382;28;20072;-62
2024/01/08 06:22:51;;;;;;;9.03;7.03;;;;;;;-3.60;100.00;102829.34;5026420;28;20124;-62
2024/01/08 06:25:16;;;;;;;8.50;6.60;;;;;;;-3.56;100.00;102826.47;5027184;28;20610;-62
2024/01/08 06:27:42;;;;;;;9.90;6.90;;;;;;;-3.56;100.00;102834.06;5027589;28;20120;-62
2024/01/08 06:30:08;;;;;;;7.90;6.03;;;;;;;-3.56;100.00;102827.34;5027162;28;20568;-62
2024/01/08 06:32:33;;;;;;;8.50;7.00;;;;;;;-3.55;100.00;102833.31;5027893;28;20112;-62
2024/01/08 06:34:58;;;;;;;9.17;6.97;;;;;;;-3.52;100.00;102823.56;5026968;28;20544;-62
2024/01/08 06:37:24;;;;;;;9.07;7.10;;;;;;;-3.48;100.00;102837.50;5027843;28;20127;-61
2024/01/08 06:39:49;;;;;;;9.67;7.33;;;;;;;-3.52;100.00;102823.56;5026724;28;20029;-62
2024/01/08 06:42:14;;;;;;;8.20;6.87;;;;;;;-3.51;100.00;102815.25;5027330;28;20551;-62
2024/01/08 06:44:40;;;;;;;7.80;6.93;;;;;;;-3.51;100.00;102820.31;5027119;28;20051;-62
2024/01/08 06:47:05;;;;;;;8.80;7.13;;;;;;;-3.51;100.00;102821.19;5026864;28;20045;-62
2024/01/08 06:49:30;;;;;;;9.63;7.20;;;;;;;-3.49;100.00;102823.94;5026832;28;20044;-61
2024/01/08 06:51:55;;;;;;;7.50;6.53;;;;;;;-3.47;100.00;102827.53;5027093;28;20033;-62
2024/01/08 06:54:21;;;;;;;9.30;7.03;;;;;;;-3.47;100.00;102817.41;5026966;28;20513;-62
2024/01/08 06:56:46;;;;;;;10.57;7.13;;;;;;;-3.43;100.00;102823.75;5027254;28;20114;-62
2024/01/08 06:59:11;;;;;;;7.67;6.33;;;;;;;-3.44;100.00;102812.72;5026282;28;20061;-62
2024/01/08 07:01:37;;;;;;;8.70;7.50;;;;;;;-3.40;100.00;102824.16;5027232;28;20021;-62
2024/01/08 07:04:02;;;;;;;8.90;7.00;;;;;;;-3.39;100.00;102828.47;5026487;28;20065;-62
2024/01/08 07:06:28;;;;;;;8.60;6.93;;;;;;;-3.38;100.00;102831.19;5027099;28;20029;-62
2024/01/08 07:08:54;;;;;;;9.10;6.90;;;;;;;-3.36;100.00;102833.91;5026855;28;20024;-62
2024/01/08 07:11:23;;;;;;;9.47;7.63;;;;;;;-3.36;100.00;102836.47;5026789;28;20029;-62
2024/01/08 07:13:49;;;;;;;10.63;7.80;;;;;;;-3.33;100.00;102841.00;5025595;28;20058;-62
2024/01/08 07:16:15;;;;;;;9.63;7.70;;;;;;;-3.32;100.00;102833.56;5027105;28;20248;-62
2024/01/08 07:18:41;;;;;;;8.97;7.33;;;;;;;-3.30;100.00;102842.28;5026770;28;20531;-61
2024/01/08 07:21:07;;;;;;;8.07;7.13;;;;;;;-3.30;100.00;102841.38;5026349;28;20032;-62
2024/01/08 07:23:33;;;;;;;9.67;7.63;;;;;;;-3.29;100.00;102844.09;5026496;28;20339;-62
2024/01/08 07:25:59;;;;;;;8.93;7.67;;;;;;;-3.28;100.00;102850.06;5026392;28;20025;-62
2024/01/08 07:28:24;;;;;;;11.60;8.27;;;;;;;-3.27;100.00;102847.72;5026171;28;20028;-62
2024/01/08 07:30:49;;;;;;;7.83;7.03;;;;;;;-3.24;100.00;102847.19;5024055;28;20499;-62
2024/01/08 07:33:15;;;;;;;9.03;6.50;;;;;;;-3.25;100.00;102852.97;5026216;28;20029;-62
2024/01/08 07:35:40;;;;;;;11.70;7.80;;;;;;;-3.25;100.00;102852.97;5022967;28;20047;-62
2024/01/08 07:38:05;;;;;;;8.67;7.77;;;;;;;-3.24;100.00;102854.81;5027272;28;20017;-62
2024/01/08 07:40:31;;;;;;;9.57;7.80;;;;;;;-3.23;100.00;102849.00;5041389;28;20079;-62
2024/01/08 07:42:57;;;;;;;8.83;6.63;;;;;;;-3.20;100.00;102859.50;5039270;28;20029;-62
2024/01/08 07:45:24;;;;;;;7.97;6.77;;;;;;;-3.20;100.00;102859.50;5043837;28;20021;-62
2024/01/08 07:47:49;;;;;;;8.77;7.43;;;;;;;-3.19;100.00;102871.47;5040545;28;20032;-62
2024/01/08 07:50:15;;;;;;;9.10;7.17;;;;;;;-3.19;100.00;102866.41;5041855;28;20211;-62
2024/01/08 07:52:41;;;;;;;9.80;6.87;;;;;;;-3.18;100.00;102868.22;5019504;28;20241;-62
2024/01/08 07:55:08;;;;;;;9.70;7.47;;;;;;;-3.17;100.00;102870.03;5033290;28;20025;-62
2024/01/08 07:57:33;;;;;;;9.03;6.83;;;;;;;-3.18;100.00;102863.13;5043490;28;20375;-62
2024/01/08 07:59:58;;;;;;;9.20;6.87;;;;;;;-3.15;100.00;102867.69;5046669;28;20033;-61
2024/01/08 08:02:24;;;;;;;8.70;7.00;;;;;;;-3.15;100.00;102866.03;5027831;28;20029;-62
2024/01/08 08:04:50;;;;;;;9.83;6.87;;;;;;;-3.15;100.00;102858.41;5030209;28;20022;-62
2024/01/08 08:07:16;;;;;;;7.97;6.70;;;;;;;-3.13;100.00;102861.16;5028995;28;20033;-62
2024/01/08 08:09:41;;;;;;;8.63;6.57;;;;;;;-3.13;100.00;102869.66;5029104;28;20083;-62
2024/01/08 08:12:07;;;;;;;10.47;6.90;;;;;;;-3.10;100.00;102863.16;5030287;28;20025;-62
2024/01/08 08:14:32;;;;;;;8.63;6.53;;;;;;;-3.09;100.00;102872.56;5029747;28;20439;-62
2024/01/08 08:16:57;;;;;;;7.63;6.00;;;;;;;-3.08;100.00;102874.41;5030135;28;20032;-62
2024/01/08 08:19:22;;;;;;;8.60;6.93;;;;;;;-3.05;100.00;102874.75;5030116;28;20104;-62
2024/01/08 08:21:48;;;;;;;7.83;6.50;;;;;;;-3.06;100.00;102872.97;5029481;28;20071;-62
2024/01/08 08:24:13;;;;;;;8.93;6.90;;;;;;;-3.05;100.00;102869.69;5030021;28;20464;-62
2024/01/08 08:26:38;;;;;;;8.17;7.00;;;;;;;-3.05;100.00;102873.13;5029106;28;20034;-62
2024/01/08 08:29:04;;;;;;;6.90;6.10;;;;;;;-3.04;100.00;102874.94;5029724;28;20025;-62
2024/01/08 08:31:29;;;;;;;7.43;5.80;;;;;;;-3.03;100.00;102881.84;5028349;28;20025;-62
2024/01/08 08:33:54;;;;;;;8.37;6.20;;;;;;;-3.02;100.00;102877.66;5029862;28;20033;-62
2024/01/08 08:36:20;;;;;;;6.80;5.47;;;;;;;-3.01;100.00;102882.03;5029088;28;20029;-62
2024/01/08 08:38:45;;;;;;;7.93;6.43;;;;;;;-2.99;100.00;102880.59;5030017;28;20029;-62
2024/01/08 08:41:10;;;;;;;6.20;5.50;;;;;;;-2.93;100.00;102880.41;5025363;28;20111;-62
2024/01/08 08:43:36;;;;;;;7.47;5.70;;;;;;;-2.97;100.00;102889.28;5029396;28;20026;-62
2024/01/08 08:46:02;;;;;;;8.53;5.83;;;;;;;-2.98;100.00;102887.47;5029107;28;20021;-62
2024/01/08 08:48:28;;;;;;;6.70;5.73;;;;;;;-2.96;100.00;102886.03;5029417;28;20386;-62
2024/01/08 08:50:53;;;;;;;7.53;5.70;;;;;;;-2.95;100.00;102884.41;5024164;28;20029;-62
2024/01/08 08:53:19;;;;;;;7.03;6.13;;;;;;;-2.96;100.00;102888.56;5027142;28;20028;-62
2024/01/08 08:55:44;;;;;;;7.60;6.13;;;;;;;-2.96;100.00;102893.63;5028748;28;20381;-62
2024/01/08 08:58:09;;;;;;;6.80;5.70;;;;;;;-2.93;100.00;102888.91;5029271;28;20021;-62
2024/01/08 09:00:36;;;;;;;8.57;6.10;;;;;;;-2.95;100.00;102890.34;5028479;28;20036;-62
2024/01/08 09:03:03;;;;;;;7.53;5.77;;;;;;;-2.97;100.00;102890.91;5028693;28;20112;-62
2024/01/08 09:05:29;;;;;;;8.70;6.30;;;;;;;-2.97;100.00;102889.28;5029163;28;20025;-62
2024/01/08 09:07:54;;;;;;;7.10;5.77;;;;;;;-2.99;100.00;102895.81;5028114;28;20040;-62
2024/01/08 09:10:19;;;;;;;6.53;5.40;;;;;;;-2.96;100.00;102896.16;5028888;28;20381;-62
2024/01/08 09:12:45;;;;;;;8.03;5.87;;;;;;;-2.97;100.00;102888.38;5028075;28;20052;-62
2024/01/08 09:15:10;;;;;;;6.47;5.07;;;;;;;-2.96;100.00;102902.88;5028670;28;20474;-62
2024/01/08 09:17:35;;;;;;;7.43;5.93;;;;;;;-2.96;100.00;102896.16;5028076;28;20240;-62
2024/01/08 09:20:01;;;;;;;6.70;5.70;;;;;;;-2.95;100.00;102897.97;5028799;28;20663;-62
2024/01/08 09:22:26;;;;;;;7.37;5.80;;;;;;;-2.94;100.00;102902.34;5028415;28;20097;-62
2024/01/08 09:24:51;;;;;;;7.23;6.00;;;;;;;-2.97;100.00;102914.66;5027512;28;20025;-62
2024/01/08 09:27:17;;;;;;;6.97;5.63;;;;;;;-2.95;100.00;102904.69;5027638;28;20018;-62
2024/01/08 09:29:42;;;;;;;8.90;5.53;;;;;;;-2.95;100.00;102903.03;5028465;28;20355;-62
2024/01/08 09:32:07;;;;;;;8.07;6.03;;;;;;;-2.96;100.00;102908.84;5026506;28;20362;-62
2024/01/08 09:34:33;;;;;;;7.13;5.63;;;;;;;-2.96;100.00;102910.47;5028090;28;20033;-62
2024/01/08 09:36:58;;;;;;;6.93;5.97;;;;;;;-2.96;100.00;102916.47;5027201;28;20025;-62
2024/01/08 09:39:23;;;;;;;6.63;5.50;;;;;;;-2.93;100.00;102924.44;5028128;28;20029;-62
2024/01/08 09:41:51;;;;;;;8.87;6.97;;;;;;;-2.98;100.00;102912.84;5027400;28;20025;-62
2024/01/08 09:44:18;;;;;;;6.50;5.77;;;;;;;-2.98;100.00;102922.06;5027977;28;20049;-62
2024/01/08 09:46:47;;;;;;;7.60;6.40;;;;;;;-2.99;100.00;102921.19;5028306;28;20055;-62
2024/01/08 09:49:14;;;;;;;8.33;6.60;;;;;;;-2.98;100.00;102917.00;5027497;28;20505;-62
2024/01/08 09:51:40;;;;;;;8.23;6.57;;;;;;;-2.98;100.00;102923.00;5027555;28;20383;-62
2024/01/08 09:54:07;;;;;;;8.43;6.57;;;;;;;-2.96;100.00;102925.69;5027168;28;20091;-62
2024/01/08 09:56:32;;;;;;;7.40;6.70;;;;;;;-2.93;100.00;102915.94;5028762;28;20098;-63
2024/01/08 09:58:58;;;;;;;9.70;7.03;;;;;;;-2.90;100.00;102924.81;5027285;28;20067;-63
2024/01/08 10:01:23;;;;;;;8.40;7.50;;;;;;;-2.86;100.00;102920.13;5027891;28;20033;-63
2024/01/08 10:03:49;;;;;;;8.10;6.77;;;;;;;-2.82;100.00;102919.75;5026894;28;20056;-63
2024/01/08 10:06:14;;;;;;;7.77;6.37;;;;;;;-2.83;100.00;102925.56;5027600;28;20178;-63
2024/01/08 10:08:39;;;;;;;7.57;6.43;;;;;;;-2.81;100.00;102922.50;5027619;28;20040;-63
2024/01/08 10:11:05;;;;;;;7.53;6.33;;;;;;;-2.80;100.00;102925.91;5027406;28;20118;-63
2024/01/08 10:13:30;;;;;;;7.30;6.50;;;;;;;-2.78;100.00;102925.41;5027882;28;20029;-63
2024/01/08 10:15:56;;;;;;;7.53;6.53;;;;;;;-2.74;100.00;102924.13;5028172;28;20048;-63
2024/01/08 10:18:24;;;;;;;7.30;6.50;;;;;;;-2.69;100.00;102915.44;5027281;28;20037;-63
2024/01/08 10:21:22;;;;;;;7.43;6.47;;;;;;;-2.64;100.00;102925.25;5027623;28;20044;-63
2024/01/08 10:23:47;;;;;;;9.30;6.47;;;;;;;-2.59;100.00;102914.00;5017840;28;20367;-62
2024/01/08 10:26:16;;;;;;;7.77;5.80;;;;;;;-2.56;100.00;102914.34;5027388;28;20032;-63
2024/01/08 10:28:41;;;;;;;8.23;6.57;;;;;;;-2.47;100.00;102914.53;5028298;28;20033;-63
2024/01/08 10:31:08;;;;;;;6.83;5.93;;;;;;;-2.34;100.00;102916.91;5026554;28;20513;-63
2024/01/08 10:33:33;;;;;;;6.23;5.63;;;;;;;-2.28;100.00;102911.63;5026553;28;20099;-63
2024/01/08 10:36:05;;;;;;;7.07;5.63;;;;;;;-2.21;100.00;102907.44;5026369;28;20033;-62
2024/01/08 10:38:34;;;;;;;6.03;5.43;;;;;;;-2.22;100.00;102912.34;5027754;28;20021;-62
2024/01/08 10:41:01;;;;;;;6.00;5.33;;;;;;;-2.23;100.00;102906.34;5026239;28;20029;-63
2024/01/08 10:43:28;;;;;;;7.57;5.90;;;;;;;-2.21;100.00;102897.28;5027570;28;20029;-63
2024/01/08 10:45:56;;;;;;;7.03;5.80;;;;;;;-2.28;100.00;102902.38;5026566;28;20033;-62
2024/01/08 10:48:22;;;;;;;7.70;6.10;;;;;;;-2.33;100.00;102900.91;5016218;28;20041;-63
2024/01/08 10:50:51;;;;;;;5.93;5.33;;;;;;;-2.32;100.00;102890.06;5026315;28;20017;-63
2024/01/08 10:53:34;;;;;;;6.70;5.73;;;;;;;-2.27;100.00;102888.94;5027075;28;20033;-63
2024/01/08 10:56:00;;;;;;;6.73;5.23;;;;;;;-2.26;100.00;102888.22;5024905;28;20061;-63
2024/01/08 10:58:34;;;;;;;5.40;4.73;;;;;;;-2.24;100.00;102891.84;5027166;28;20033;-63
2024/01/08 11:01:00;;;;;;;6.80;5.67;;;;;;;-2.22;100.00;102882.78;5026598;28;20317;-63
2024/01/08 11:03:27;;;;;;;5.73;5.13;;;;;;;-2.20;100.00;102888.03;5027117;28;20039;-63
2024/01/08 11:05:54;;;;;;;4.80;4.30;;;;;;;-2.23;100.00;102886.03;5026710;28;20077;-63
2024/01/08 11:08:21;;;;;;;6.20;4.80;;;;;;;-2.23;100.00;102888.56;5026064;28;20501;-63
2024/01/08 11:10:46;;;;;;;5.83;4.60;;;;;;;-2.24;100.00;102889.31;5026611;28;20398;-63